Terminal Aerodrome Forecast
Issued by NWS

Home | Current Version | Previous Version | Text Only | Print | Product List | Glossary On
Versions: 1 2 3 4 5 6 7 8 9 10 11 12 13 14 15 16 17 18 19 20 21
103
FTUS44 KBMX 231720
TAFEET
TAF
KEET 231720Z 2318/2418 19004KT P6SM VCSH BKN012 OVC023
     FM240000 26003KT P6SM SCT030 BKN050
     FM240400 23002KT 6SM SHRA VCTS SCT015CB OVC025=

USA.gov is the U.S. government's official web portal to all federal, state and local government web resources and services.